sensor_id;sensor_type;location;lat;lon;timestamp;pressure;altitude;pressure_sealevel;temperature;humidity
79538;BME280;68989;52.032;5.152;2024-01-30T00:01:54;102725.62;;;11.38;65.37
79538;BME280;68989;52.032;5.152;2024-01-30T00:04:21;102727.57;;;11.37;65.25
79538;BME280;68989;52.032;5.152;2024-01-30T00:06:48;102725.80;;;11.36;65.37
79538;BME280;68989;52.032;5.152;2024-01-30T00:09:14;102722.43;;;11.35;65.48
79538;BME280;68989;52.032;5.152;2024-01-30T00:11:42;102722.97;;;11.34;65.33
79538;BME280;68989;52.032;5.152;2024-01-30T00:14:09;102721.81;;;11.35;65.41
79538;BME280;68989;52.032;5.152;2024-01-30T00:16:36;102720.26;;;11.34;65.49
79538;BME280;68989;52.032;5.152;2024-01-30T00:19:02;102719.00;;;11.34;65.51
79538;BME280;68989;52.032;5.152;2024-01-30T00:21:30;102716.51;;;11.34;65.36
79538;BME280;68989;52.032;5.152;2024-01-30T00:23:57;102713.88;;;11.33;65.37
79538;BME280;68989;52.032;5.152;2024-01-30T00:26:24;102715.14;;;11.33;65.34
79538;BME280;68989;52.032;5.152;2024-01-30T00:28:51;102714.29;;;11.32;65.27
79538;BME280;68989;52.032;5.152;2024-01-30T00:31:19;102714.85;;;11.31;65.24
79538;BME280;68989;52.032;5.152;2024-01-30T00:33:46;102711.50;;;11.30;65.29
79538;BME280;68989;52.032;5.152;2024-01-30T00:36:13;102709.93;;;11.30;65.20
79538;BME280;68989;52.032;5.152;2024-01-30T00:38:40;102702.77;;;11.29;65.12
79538;BME280;68989;52.032;5.152;2024-01-30T00:41:08;102704.92;;;11.28;65.04
79538;BME280;68989;52.032;5.152;2024-01-30T00:43:35;102713.62;;;11.27;64.94
79538;BME280;68989;52.032;5.152;2024-01-30T00:46:02;102712.38;;;11.25;64.82
79538;BME280;68989;52.032;5.152;2024-01-30T00:48:30;102709.55;;;11.24;64.79
79538;BME280;68989;52.032;5.152;2024-01-30T00:50:57;102710.04;;;11.23;64.87
79538;BME280;68989;52.032;5.152;2024-01-30T00:53:23;102708.90;;;11.21;64.88
79538;BME280;68989;52.032;5.152;2024-01-30T00:55:50;102707.79;;;11.19;64.77
79538;BME280;68989;52.032;5.152;2024-01-30T00:58:17;102708.30;;;11.18;64.85
79538;BME280;68989;52.032;5.152;2024-01-30T01:00:44;102709.59;;;11.16;64.71
79538;BME280;68989;52.032;5.152;2024-01-30T01:03:10;102708.00;;;11.15;64.97
79538;BME280;68989;52.032;5.152;2024-01-30T01:05:38;102710.87;;;11.13;64.75
79538;BME280;68989;52.032;5.152;2024-01-30T01:08:05;102705.65;;;11.12;64.75
79538;BME280;68989;52.032;5.152;2024-01-30T01:10:32;102694.89;;;11.10;64.73
79538;BME280;68989;52.032;5.152;2024-01-30T01:12:59;102677.39;;;11.09;64.71
79538;BME280;68989;52.032;5.152;2024-01-30T01:15:26;102680.68;;;11.07;64.64
79538;BME280;68989;52.032;5.152;2024-01-30T01:17:53;102686.13;;;11.06;64.62
79538;BME280;68989;52.032;5.152;2024-01-30T01:20:20;102683.07;;;11.05;64.70
79538;BME280;68989;52.032;5.152;2024-01-30T01:22:47;102683.35;;;11.05;64.67
79538;BME280;68989;52.032;5.152;2024-01-30T01:25:15;102680.76;;;11.04;64.84
79538;BME280;68989;52.032;5.152;2024-01-30T01:27:42;102686.07;;;11.03;64.63
79538;BME280;68989;52.032;5.152;2024-01-30T01:30:10;102689.24;;;11.02;64.63
79538;BME280;68989;52.032;5.152;2024-01-30T01:32:38;102687.46;;;11.01;64.50
79538;BME280;68989;52.032;5.152;2024-01-30T01:35:05;102684.63;;;10.99;64.74
79538;BME280;68989;52.032;5.152;2024-01-30T01:37:32;102681.79;;;10.97;64.77
79538;BME280;68989;52.032;5.152;2024-01-30T01:39:59;102675.03;;;10.96;64.64
79538;BME280;68989;52.032;5.152;2024-01-30T01:42:27;102678.87;;;10.96;64.65
79538;BME280;68989;52.032;5.152;2024-01-30T01:44:53;102678.06;;;10.95;64.63
79538;BME280;68989;52.032;5.152;2024-01-30T01:47:21;102680.01;;;10.94;64.57
79538;BME280;68989;52.032;5.152;2024-01-30T01:49:48;102681.50;;;10.93;64.65
79538;BME280;68989;52.032;5.152;2024-01-30T01:52:15;102672.57;;;10.91;64.90
79538;BME280;68989;52.032;5.152;2024-01-30T01:54:42;102672.49;;;10.90;65.00
79538;BME280;68989;52.032;5.152;2024-01-30T01:57:09;102666.79;;;10.89;64.99
79538;BME280;68989;52.032;5.152;2024-01-30T01:59:37;102668.70;;;10.88;64.87
79538;BME280;68989;52.032;5.152;2024-01-30T02:02:19;102666.19;;;10.88;64.70
79538;BME280;68989;52.032;5.152;2024-01-30T02:04:47;102663.52;;;10.87;64.54
79538;BME280;68989;52.032;5.152;2024-01-30T02:07:15;102664.58;;;10.87;64.62
79538;BME280;68989;52.032;5.152;2024-01-30T02:09:41;102663.68;;;10.85;64.79
79538;BME280;68989;52.032;5.152;2024-01-30T02:12:08;102663.91;;;10.84;64.69
79538;BME280;68989;52.032;5.152;2024-01-30T02:14:44;102673.58;;;10.83;64.75
79538;BME280;68989;52.032;5.152;2024-01-30T02:17:11;102671.56;;;10.82;64.63
79538;BME280;68989;52.032;5.152;2024-01-30T02:19:39;102676.36;;;10.82;64.66
79538;BME280;68989;52.032;5.152;2024-01-30T02:22:06;102674.43;;;10.81;64.63
79538;BME280;68989;52.032;5.152;2024-01-30T02:24:34;102669.79;;;10.81;64.48
79538;BME280;68989;52.032;5.152;2024-01-30T02:27:01;102668.58;;;10.79;64.61
79538;BME280;68989;52.032;5.152;2024-01-30T02:29:28;102672.13;;;10.78;64.71
79538;BME280;68989;52.032;5.152;2024-01-30T02:31:54;102666.29;;;10.78;64.67
79538;BME280;68989;52.032;5.152;2024-01-30T02:34:21;102662.02;;;10.77;64.74
79538;BME280;68989;52.032;5.152;2024-01-30T02:36:48;102652.17;;;10.76;64.89
79538;BME280;68989;52.032;5.152;2024-01-30T02:39:15;102660.88;;;10.76;65.02
79538;BME280;68989;52.032;5.152;2024-01-30T02:41:42;102656.48;;;10.76;64.95
79538;BME280;68989;52.032;5.152;2024-01-30T02:44:09;102652.54;;;10.76;64.95
79538;BME280;68989;52.032;5.152;2024-01-30T02:46:36;102652.99;;;10.76;64.87
79538;BME280;68989;52.032;5.152;2024-01-30T02:49:03;102650.77;;;10.76;64.90
79538;BME280;68989;52.032;5.152;2024-01-30T02:51:29;102651.09;;;10.76;64.93
79538;BME280;68989;52.032;5.152;2024-01-30T02:53:57;102654.25;;;10.77;64.98
79538;BME280;68989;52.032;5.152;2024-01-30T02:56:23;102650.99;;;10.76;64.75
79538;BME280;68989;52.032;5.152;2024-01-30T02:58:50;102644.41;;;10.76;64.86
79538;BME280;68989;52.032;5.152;2024-01-30T03:01:17;102645.13;;;10.76;65.06
79538;BME280;68989;52.032;5.152;2024-01-30T03:03:44;102643.61;;;10.76;65.06
79538;BME280;68989;52.032;5.152;2024-01-30T03:06:11;102638.75;;;10.77;65.23
79538;BME280;68989;52.032;5.152;2024-01-30T03:08:39;102639.59;;;10.78;65.06
79538;BME280;68989;52.032;5.152;2024-01-30T03:11:06;102640.62;;;10.79;65.04
79538;BME280;68989;52.032;5.152;2024-01-30T03:13:34;102638.33;;;10.80;65.12
79538;BME280;68989;52.032;5.152;2024-01-30T03:16:01;102639.58;;;10.80;64.98
79538;BME280;68989;52.032;5.152;2024-01-30T03:18:28;102638.61;;;10.81;65.05
79538;BME280;68989;52.032;5.152;2024-01-30T03:20:55;102635.82;;;10.83;65.00
79538;BME280;68989;52.032;5.152;2024-01-30T03:23:22;102632.43;;;10.84;65.06
79538;BME280;68989;52.032;5.152;2024-01-30T03:25:49;102623.79;;;10.85;65.11
79538;BME280;68989;52.032;5.152;2024-01-30T03:28:16;102626.00;;;10.86;65.17
79538;BME280;68989;52.032;5.152;2024-01-30T03:30:43;102620.87;;;10.88;65.32
79538;BME280;68989;52.032;5.152;2024-01-30T03:33:10;102616.40;;;10.89;65.16
79538;BME280;68989;52.032;5.152;2024-01-30T03:35:38;102614.31;;;10.91;65.08
79538;BME280;68989;52.032;5.152;2024-01-30T03:38:05;102610.01;;;10.92;65.06
79538;BME280;68989;52.032;5.152;2024-01-30T03:40:32;102609.07;;;10.94;65.05
79538;BME280;68989;52.032;5.152;2024-01-30T03:42:58;102600.11;;;10.95;65.07
79538;BME280;68989;52.032;5.152;2024-01-30T03:45:25;102610.48;;;10.97;64.97
79538;BME280;68989;52.032;5.152;2024-01-30T03:47:52;102606.34;;;11.00;64.98
79538;BME280;68989;52.032;5.152;2024-01-30T03:50:19;102609.27;;;11.01;65.01
79538;BME280;68989;52.032;5.152;2024-01-30T03:52:46;102615.08;;;11.03;64.94
79538;BME280;68989;52.032;5.152;2024-01-30T03:55:13;102616.67;;;11.05;64.88
79538;BME280;68989;52.032;5.152;2024-01-30T03:57:39;102621.02;;;11.06;64.88
79538;BME280;68989;52.032;5.152;2024-01-30T04:00:08;102616.80;;;11.08;64.89
79538;BME280;68989;52.032;5.152;2024-01-30T04:02:35;102624.01;;;11.10;65.02
79538;BME280;68989;52.032;5.152;2024-01-30T04:05:02;102621.71;;;11.12;65.02
79538;BME280;68989;52.032;5.152;2024-01-30T04:07:29;102623.35;;;11.13;65.14
79538;BME280;68989;52.032;5.152;2024-01-30T04:09:56;102617.19;;;11.14;65.27
79538;BME280;68989;52.032;5.152;2024-01-30T04:12:23;102620.36;;;11.15;65.26
79538;BME280;68989;52.032;5.152;2024-01-30T04:14:50;102612.85;;;11.16;65.26
79538;BME280;68989;52.032;5.152;2024-01-30T04:17:17;102610.25;;;11.17;65.33
79538;BME280;68989;52.032;5.152;2024-01-30T04:19:44;102614.19;;;11.18;65.31
79538;BME280;68989;52.032;5.152;2024-01-30T04:22:11;102609.14;;;11.18;65.64
79538;BME280;68989;52.032;5.152;2024-01-30T04:24:38;102604.06;;;11.20;65.88
79538;BME280;68989;52.032;5.152;2024-01-30T04:27:05;102595.01;;;11.21;65.77
79538;BME280;68989;52.032;5.152;2024-01-30T04:29:32;102590.73;;;11.23;66.19
79538;BME280;68989;52.032;5.152;2024-01-30T04:31:59;102582.36;;;11.25;66.42
79538;BME280;68989;52.032;5.152;2024-01-30T04:34:27;102590.52;;;11.28;65.97
79538;BME280;68989;52.032;5.152;2024-01-30T04:36:54;102591.59;;;11.30;65.92
79538;BME280;68989;52.032;5.152;2024-01-30T04:39:22;102594.42;;;11.32;65.91
79538;BME280;68989;52.032;5.152;2024-01-30T04:41:49;102588.60;;;11.34;65.79
79538;BME280;68989;52.032;5.152;2024-01-30T04:44:15;102596.39;;;11.36;66.07
79538;BME280;68989;52.032;5.152;2024-01-30T04:46:42;102596.77;;;11.38;66.33
79538;BME280;68989;52.032;5.152;2024-01-30T04:49:10;102592.52;;;11.41;66.50
79538;BME280;68989;52.032;5.152;2024-01-30T04:51:37;102591.51;;;11.43;66.59
79538;BME280;68989;52.032;5.152;2024-01-30T04:54:04;102590.41;;;11.45;66.51
79538;BME280;68989;52.032;5.152;2024-01-30T04:56:31;102588.61;;;11.46;66.62
79538;BME280;68989;52.032;5.152;2024-01-30T04:58:59;102593.79;;;11.48;66.77
79538;BME280;68989;52.032;5.152;2024-01-30T05:01:26;102588.98;;;11.50;67.18
79538;BME280;68989;52.032;5.152;2024-01-30T05:03:53;102588.35;;;11.52;67.38
79538;BME280;68989;52.032;5.152;2024-01-30T05:06:25;102596.95;;;11.54;68.23
79538;BME280;68989;52.032;5.152;2024-01-30T05:08:52;102587.58;;;11.55;68.25
79538;BME280;68989;52.032;5.152;2024-01-30T05:11:19;102585.80;;;11.59;68.29
79538;BME280;68989;52.032;5.152;2024-01-30T05:13:46;102583.31;;;11.62;68.66
79538;BME280;68989;52.032;5.152;2024-01-30T05:16:13;102580.67;;;11.64;68.62
79538;BME280;68989;52.032;5.152;2024-01-30T05:18:40;102571.48;;;11.67;68.84
79538;BME280;68989;52.032;5.152;2024-01-30T05:21:07;102562.78;;;11.69;68.48
79538;BME280;68989;52.032;5.152;2024-01-30T05:23:34;102561.66;;;11.71;68.74
79538;BME280;68989;52.032;5.152;2024-01-30T05:26:02;102580.45;;;11.74;69.00
79538;BME280;68989;52.032;5.152;2024-01-30T05:28:29;102582.78;;;11.77;68.66
79538;BME280;68989;52.032;5.152;2024-01-30T05:30:56;102578.17;;;11.79;68.70
79538;BME280;68989;52.032;5.152;2024-01-30T05:33:23;102580.57;;;11.80;69.12
79538;BME280;68989;52.032;5.152;2024-01-30T05:35:50;102578.26;;;11.82;68.69
79538;BME280;68989;52.032;5.152;2024-01-30T05:38:18;102578.59;;;11.84;68.68
79538;BME280;68989;52.032;5.152;2024-01-30T05:40:44;102580.53;;;11.85;67.87
79538;BME280;68989;52.032;5.152;2024-01-30T05:43:11;102577.65;;;11.86;68.43
79538;BME280;68989;52.032;5.152;2024-01-30T05:45:38;102580.24;;;11.87;68.07
79538;BME280;68989;52.032;5.152;2024-01-30T05:48:06;102584.58;;;11.89;67.86
79538;BME280;68989;52.032;5.152;2024-01-30T05:50:32;102580.11;;;11.89;67.85
79538;BME280;68989;52.032;5.152;2024-01-30T05:52:59;102583.84;;;11.91;67.75
79538;BME280;68989;52.032;5.152;2024-01-30T05:55:26;102585.59;;;11.93;68.40
79538;BME280;68989;52.032;5.152;2024-01-30T05:57:53;102587.11;;;11.94;68.32
79538;BME280;68989;52.032;5.152;2024-01-30T06:00:20;102584.01;;;11.96;68.51
79538;BME280;68989;52.032;5.152;2024-01-30T06:02:48;102573.95;;;11.98;68.55
79538;BME280;68989;52.032;5.152;2024-01-30T06:05:14;102574.90;;;12.00;68.10
79538;BME280;68989;52.032;5.152;2024-01-30T06:07:41;102585.28;;;12.01;68.12
79538;BME280;68989;52.032;5.152;2024-01-30T06:10:09;102583.44;;;12.02;68.71
79538;BME280;68989;52.032;5.152;2024-01-30T06:12:36;102578.29;;;12.04;68.77
79538;BME280;68989;52.032;5.152;2024-01-30T06:15:03;102584.06;;;12.07;68.82
79538;BME280;68989;52.032;5.152;2024-01-30T06:17:30;102585.92;;;12.07;68.39
79538;BME280;68989;52.032;5.152;2024-01-30T06:19:57;102580.26;;;12.08;68.28
79538;BME280;68989;52.032;5.152;2024-01-30T06:22:25;102586.64;;;12.10;68.34
79538;BME280;68989;52.032;5.152;2024-01-30T06:24:52;102587.95;;;12.11;68.19
79538;BME280;68989;52.032;5.152;2024-01-30T06:27:19;102589.17;;;12.13;68.76
79538;BME280;68989;52.032;5.152;2024-01-30T06:29:46;102585.02;;;12.16;68.93
79538;BME280;68989;52.032;5.152;2024-01-30T06:32:14;102591.87;;;12.18;69.04
79538;BME280;68989;52.032;5.152;2024-01-30T06:34:41;102598.27;;;12.20;69.23
79538;BME280;68989;52.032;5.152;2024-01-30T06:37:08;102604.17;;;12.20;69.53
79538;BME280;68989;52.032;5.152;2024-01-30T06:39:35;102602.67;;;12.22;69.59
79538;BME280;68989;52.032;5.152;2024-01-30T06:42:03;102598.37;;;12.23;70.02
79538;BME280;68989;52.032;5.152;2024-01-30T06:44:31;102597.92;;;12.26;70.05
79538;BME280;68989;52.032;5.152;2024-01-30T06:46:58;102606.25;;;12.29;70.13
79538;BME280;68989;52.032;5.152;2024-01-30T06:49:25;102605.44;;;12.32;69.97
79538;BME280;68989;52.032;5.152;2024-01-30T06:51:52;102606.70;;;12.35;70.22
79538;BME280;68989;52.032;5.152;2024-01-30T06:54:19;102611.01;;;12.37;69.89
79538;BME280;68989;52.032;5.152;2024-01-30T06:56:46;102611.83;;;12.39;69.71
79538;BME280;68989;52.032;5.152;2024-01-30T06:59:14;102601.51;;;12.40;69.66
79538;BME280;68989;52.032;5.152;2024-01-30T07:01:40;102598.00;;;12.41;70.03
79538;BME280;68989;52.032;5.152;2024-01-30T07:04:07;102603.82;;;12.42;69.58
79538;BME280;68989;52.032;5.152;2024-01-30T07:06:34;102601.34;;;12.42;69.77
79538;BME280;68989;52.032;5.152;2024-01-30T07:09:01;102602.16;;;12.43;69.91
79538;BME280;68989;52.032;5.152;2024-01-30T07:11:28;102600.68;;;12.45;70.05
79538;BME280;68989;52.032;5.152;2024-01-30T07:13:55;102601.41;;;12.48;70.43
79538;BME280;68989;52.032;5.152;2024-01-30T07:16:22;102603.99;;;12.47;70.76
79538;BME280;68989;52.032;5.152;2024-01-30T07:18:49;102608.00;;;12.50;70.75
79538;BME280;68989;52.032;5.152;2024-01-30T07:21:17;102609.75;;;12.53;70.82
79538;BME280;68989;52.032;5.152;2024-01-30T07:23:43;102610.39;;;12.56;70.81
79538;BME280;68989;52.032;5.152;2024-01-30T07:26:11;102614.28;;;12.59;70.55
79538;BME280;68989;52.032;5.152;2024-01-30T07:28:38;102617.62;;;12.64;70.52
79538;BME280;68989;52.032;5.152;2024-01-30T07:31:05;102626.43;;;12.63;70.82
79538;BME280;68989;52.032;5.152;2024-01-30T07:33:32;102629.37;;;12.65;70.84
79538;BME280;68989;52.032;5.152;2024-01-30T07:36:00;102633.95;;;12.67;71.03
79538;BME280;68989;52.032;5.152;2024-01-30T07:38:27;102641.83;;;12.70;71.21
79538;BME280;68989;52.032;5.152;2024-01-30T07:40:54;102637.99;;;12.72;71.13
79538;BME280;68989;52.032;5.152;2024-01-30T07:43:21;102639.63;;;12.75;70.61
79538;BME280;68989;52.032;5.152;2024-01-30T07:45:48;102646.62;;;12.78;70.53
79538;BME280;68989;52.032;5.152;2024-01-30T07:48:15;102649.93;;;12.80;70.72
79538;BME280;68989;52.032;5.152;2024-01-30T07:50:42;102645.43;;;12.82;70.58
79538;BME280;68989;52.032;5.152;2024-01-30T07:53:09;102643.73;;;12.83;70.66
79538;BME280;68989;52.032;5.152;2024-01-30T07:55:36;102641.54;;;12.85;70.84
79538;BME280;68989;52.032;5.152;2024-01-30T07:58:04;102640.79;;;12.88;71.31
79538;BME280;68989;52.032;5.152;2024-01-30T08:00:31;102643.74;;;12.91;71.30
79538;BME280;68989;52.032;5.152;2024-01-30T08:02:58;102649.73;;;12.95;71.50
79538;BME280;68989;52.032;5.152;2024-01-30T08:05:26;102647.89;;;12.97;71.53
79538;BME280;68989;52.032;5.152;2024-01-30T08:07:52;102650.93;;;13.01;71.71
79538;BME280;68989;52.032;5.152;2024-01-30T08:10:20;102642.73;;;13.04;71.55
79538;BME280;68989;52.032;5.152;2024-01-30T08:12:47;102639.80;;;13.07;71.76
79538;BME280;68989;52.032;5.152;2024-01-30T08:15:14;102637.57;;;13.11;71.94
79538;BME280;68989;52.032;5.152;2024-01-30T08:17:41;102640.78;;;13.14;71.33
79538;BME280;68989;52.032;5.152;2024-01-30T08:20:09;102640.58;;;13.16;71.46
79538;BME280;68989;52.032;5.152;2024-01-30T08:22:38;102639.44;;;13.19;71.20
79538;BME280;68989;52.032;5.152;2024-01-30T08:25:07;102643.27;;;13.22;71.83
79538;BME280;68989;52.032;5.152;2024-01-30T08:27:34;102641.22;;;13.26;71.74
79538;BME280;68989;52.032;5.152;2024-01-30T08:30:01;102641.70;;;13.29;71.94
79538;BME280;68989;52.032;5.152;2024-01-30T08:32:28;102642.38;;;13.31;71.43
79538;BME280;68989;52.032;5.152;2024-01-30T08:34:55;102638.66;;;13.35;71.96
79538;BME280;68989;52.032;5.152;2024-01-30T08:37:22;102639.76;;;13.40;72.19
79538;BME280;68989;52.032;5.152;2024-01-30T08:39:49;102641.68;;;13.42;72.09
79538;BME280;68989;52.032;5.152;2024-01-30T08:42:16;102639.09;;;13.46;72.10
79538;BME280;68989;52.032;5.152;2024-01-30T08:44:44;102639.14;;;13.48;72.16
79538;BME280;68989;52.032;5.152;2024-01-30T08:47:11;102640.50;;;13.53;72.46
79538;BME280;68989;52.032;5.152;2024-01-30T08:49:38;102648.57;;;13.57;72.84
79538;BME280;68989;52.032;5.152;2024-01-30T08:52:05;102651.57;;;13.62;72.85
79538;BME280;68989;52.032;5.152;2024-01-30T08:54:32;102655.05;;;13.68;73.13
79538;BME280;68989;52.032;5.152;2024-01-30T08:56:59;102659.85;;;13.72;72.94
79538;BME280;68989;52.032;5.152;2024-01-30T08:59:26;102655.18;;;13.76;72.69
79538;BME280;68989;52.032;5.152;2024-01-30T09:01:53;102659.76;;;13.81;73.00
79538;BME280;68989;52.032;5.152;2024-01-30T09:04:20;102661.35;;;13.85;72.89
79538;BME280;68989;52.032;5.152;2024-01-30T09:06:48;102659.74;;;13.88;72.89
79538;BME280;68989;52.032;5.152;2024-01-30T09:09:16;102662.58;;;13.91;72.38
79538;BME280;68989;52.032;5.152;2024-01-30T09:11:43;102664.84;;;13.93;72.56
79538;BME280;68989;52.032;5.152;2024-01-30T09:14:10;102672.04;;;13.97;72.64
79538;BME280;68989;52.032;5.152;2024-01-30T09:16:37;102669.33;;;13.99;72.37
79538;BME280;68989;52.032;5.152;2024-01-30T09:19:05;102672.98;;;13.99;72.23
79538;BME280;68989;52.032;5.152;2024-01-30T09:21:32;102672.50;;;14.02;72.53
79538;BME280;68989;52.032;5.152;2024-01-30T09:24:02;102677.07;;;14.04;72.22
79538;BME280;68989;52.032;5.152;2024-01-30T09:26:30;102672.72;;;14.05;71.48
79538;BME280;68989;52.032;5.152;2024-01-30T09:28:57;102674.89;;;14.06;71.48
79538;BME280;68989;52.032;5.152;2024-01-30T09:31:25;102674.37;;;14.07;71.72
79538;BME280;68989;52.032;5.152;2024-01-30T09:33:52;102677.01;;;14.07;71.75
79538;BME280;68989;52.032;5.152;2024-01-30T09:36:19;102670.30;;;14.09;71.85
79538;BME280;68989;52.032;5.152;2024-01-30T09:38:46;102682.10;;;14.12;72.38
79538;BME280;68989;52.032;5.152;2024-01-30T09:41:14;102684.04;;;14.15;72.50
79538;BME280;68989;52.032;5.152;2024-01-30T09:43:46;102685.49;;;14.18;72.68
79538;BME280;68989;52.032;5.152;2024-01-30T09:46:15;102692.53;;;14.23;73.13
79538;BME280;68989;52.032;5.152;2024-01-30T09:48:44;102695.91;;;14.27;73.11
79538;BME280;68989;52.032;5.152;2024-01-30T09:51:14;102694.68;;;14.31;72.96
79538;BME280;68989;52.032;5.152;2024-01-30T09:53:42;102702.76;;;14.36;72.95
79538;BME280;68989;52.032;5.152;2024-01-30T09:56:10;102700.69;;;14.39;72.44
79538;BME280;68989;52.032;5.152;2024-01-30T09:58:38;102699.02;;;14.42;72.56
79538;BME280;68989;52.032;5.152;2024-01-30T10:01:06;102700.93;;;14.46;72.58
79538;BME280;68989;52.032;5.152;2024-01-30T10:03:33;102701.08;;;14.49;72.68
79538;BME280;68989;52.032;5.152;2024-01-30T10:06:01;102702.53;;;14.54;72.67
79538;BME280;68989;52.032;5.152;2024-01-30T10:08:28;102704.04;;;14.58;73.06
79538;BME280;68989;52.032;5.152;2024-01-30T10:10:55;102708.61;;;14.63;72.71
79538;BME280;68989;52.032;5.152;2024-01-30T10:13:23;102702.55;;;14.68;73.01
79538;BME280;68989;52.032;5.152;2024-01-30T10:15:50;102700.27;;;14.74;73.17
79538;BME280;68989;52.032;5.152;2024-01-30T10:18:18;102697.29;;;14.79;73.52
79538;BME280;68989;52.032;5.152;2024-01-30T10:20:45;102702.31;;;14.86;73.51
79538;BME280;68989;52.032;5.152;2024-01-30T10:23:12;102708.60;;;14.94;73.67
79538;BME280;68989;52.032;5.152;2024-01-30T10:25:40;102709.41;;;14.99;73.54
79538;BME280;68989;52.032;5.152;2024-01-30T10:28:07;102699.05;;;15.05;72.91
79538;BME280;68989;52.032;5.152;2024-01-30T10:30:34;102699.66;;;15.10;72.77
79538;BME280;68989;52.032;5.152;2024-01-30T10:33:02;102704.19;;;15.14;72.72
79538;BME280;68989;52.032;5.152;2024-01-30T10:35:29;102705.83;;;15.17;72.42
79538;BME280;68989;52.032;5.152;2024-01-30T10:37:57;102702.23;;;15.20;72.29
79538;BME280;68989;52.032;5.152;2024-01-30T10:40:27;102702.37;;;15.21;72.36
79538;BME280;68989;52.032;5.152;2024-01-30T10:42:55;102717.94;;;15.22;71.85
79538;BME280;68989;52.032;5.152;2024-01-30T10:45:23;102717.28;;;15.25;72.01
79538;BME280;68989;52.032;5.152;2024-01-30T10:47:54;102715.77;;;15.27;71.88
79538;BME280;68989;52.032;5.152;2024-01-30T10:50:23;102722.18;;;15.30;71.75
79538;BME280;68989;52.032;5.152;2024-01-30T10:52:52;102725.21;;;15.33;71.56
79538;BME280;68989;52.032;5.152;2024-01-30T10:55:21;102722.30;;;15.37;71.38
79538;BME280;68989;52.032;5.152;2024-01-30T10:57:49;102733.93;;;15.40;71.40
79538;BME280;68989;52.032;5.152;2024-01-30T11:00:16;102732.45;;;15.42;71.28
79538;BME280;68989;52.032;5.152;2024-01-30T11:02:45;102725.84;;;15.43;71.01
79538;BME280;68989;52.032;5.152;2024-01-30T11:05:13;102733.42;;;15.47;71.37
79538;BME280;68989;52.032;5.152;2024-01-30T11:07:41;102736.11;;;15.50;71.06
79538;BME280;68989;52.032;5.152;2024-01-30T11:10:08;102736.80;;;15.53;70.90
79538;BME280;68989;52.032;5.152;2024-01-30T11:12:38;102741.26;;;15.53;70.64
79538;BME280;68989;52.032;5.152;2024-01-30T11:15:07;102738.66;;;15.55;70.26
79538;BME280;68989;52.032;5.152;2024-01-30T11:17:43;102749.93;;;15.55;69.68
79538;BME280;68989;52.032;5.152;2024-01-30T11:20:12;102748.15;;;15.56;69.29
79538;BME280;68989;52.032;5.152;2024-01-30T11:22:41;102749.46;;;15.57;69.32
79538;BME280;68989;52.032;5.152;2024-01-30T11:25:11;102747.49;;;15.58;68.89
79538;BME280;68989;52.032;5.152;2024-01-30T11:27:39;102753.74;;;15.59;68.67
79538;BME280;68989;52.032;5.152;2024-01-30T11:30:07;102756.38;;;15.57;68.15
79538;BME280;68989;52.032;5.152;2024-01-30T11:32:35;102753.41;;;15.57;67.88
79538;BME280;68989;52.032;5.152;2024-01-30T11:35:03;102754.33;;;15.57;67.61
79538;BME280;68989;52.032;5.152;2024-01-30T11:37:31;102754.45;;;15.54;67.40
79538;BME280;68989;52.032;5.152;2024-01-30T11:39:59;102758.37;;;15.54;67.25
79538;BME280;68989;52.032;5.152;2024-01-30T11:42:26;102759.83;;;15.53;66.92
79538;BME280;68989;52.032;5.152;2024-01-30T11:44:54;102765.07;;;15.51;66.92
79538;BME280;68989;52.032;5.152;2024-01-30T11:47:20;102757.28;;;15.52;67.23
79538;BME280;68989;52.032;5.152;2024-01-30T11:49:49;102749.45;;;15.53;67.18
79538;BME280;68989;52.032;5.152;2024-01-30T11:52:17;102756.75;;;15.55;67.05
79538;BME280;68989;52.032;5.152;2024-01-30T11:54:44;102757.73;;;15.57;66.96
79538;BME280;68989;52.032;5.152;2024-01-30T11:57:11;102755.00;;;15.58;66.68
79538;BME280;68989;52.032;5.152;2024-01-30T11:59:38;102764.16;;;15.61;67.12
79538;BME280;68989;52.032;5.152;2024-01-30T12:02:05;102766.41;;;15.63;66.31
79538;BME280;68989;52.032;5.152;2024-01-30T12:04:32;102762.30;;;15.62;65.80
79538;BME280;68989;52.032;5.152;2024-01-30T12:06:59;102772.37;;;15.62;65.27
79538;BME280;68989;52.032;5.152;2024-01-30T12:09:26;102782.38;;;15.61;64.94
79538;BME280;68989;52.032;5.152;2024-01-30T12:11:53;102789.78;;;15.59;64.58
79538;BME280;68989;52.032;5.152;2024-01-30T12:14:20;102791.08;;;15.56;64.38
79538;BME280;68989;52.032;5.152;2024-01-30T12:16:49;102796.56;;;15.53;64.36
79538;BME280;68989;52.032;5.152;2024-01-30T12:19:22;102796.68;;;15.50;64.57
79538;BME280;68989;52.032;5.152;2024-01-30T12:21:54;102802.21;;;15.50;64.25
79538;BME280;68989;52.032;5.152;2024-01-30T12:24:21;102803.73;;;15.44;64.02
79538;BME280;68989;52.032;5.152;2024-01-30T12:26:49;102804.09;;;15.39;64.04
79538;BME280;68989;52.032;5.152;2024-01-30T12:29:17;102808.84;;;15.36;63.95
79538;BME280;68989;52.032;5.152;2024-01-30T12:31:44;102806.59;;;15.32;64.10
79538;BME280;68989;52.032;5.152;2024-01-30T12:34:14;102807.37;;;15.30;64.30
79538;BME280;68989;52.032;5.152;2024-01-30T12:36:41;102803.89;;;15.28;63.92
79538;BME280;68989;52.032;5.152;2024-01-30T12:39:11;102804.04;;;15.29;64.23
79538;BME280;68989;52.032;5.152;2024-01-30T12:41:38;102805.06;;;15.26;63.76
79538;BME280;68989;52.032;5.152;2024-01-30T12:44:04;102800.92;;;15.26;63.46
79538;BME280;68989;52.032;5.152;2024-01-30T12:46:31;102804.32;;;15.27;63.52
79538;BME280;68989;52.032;5.152;2024-01-30T12:49:00;102804.74;;;15.27;63.40
79538;BME280;68989;52.032;5.152;2024-01-30T12:51:27;102807.81;;;15.28;63.15